createdAt,value
2023-01-06T00:01:18.909Z,6.60
2023-01-06T00:03:51.515Z,6.57
2023-01-06T00:06:20.149Z,6.55
2023-01-06T00:08:48.071Z,6.53
2023-01-06T00:11:16.413Z,6.53
2023-01-06T00:13:44.281Z,6.48
2023-01-06T00:16:13.576Z,6.45
2023-01-06T00:18:42.128Z,6.45
2023-01-06T00:21:10.508Z,6.43
2023-01-06T00:23:38.491Z,6.39
2023-01-06T00:26:07.420Z,6.38
2023-01-06T00:28:35.740Z,6.38
2023-01-06T00:31:10.774Z,6.30
2023-01-06T00:33:40.457Z,6.30
2023-01-06T00:36:10.712Z,6.31
2023-01-06T00:38:40.249Z,6.26
2023-01-06T00:41:29.676Z,6.25
2023-01-06T00:43:58.096Z,6.22
2023-01-06T00:46:29.490Z,6.25
2023-01-06T00:49:06.843Z,6.28
2023-01-06T00:51:36.934Z,6.24
2023-01-06T00:54:06.997Z,6.21
2023-01-06T00:56:42.166Z,6.24
2023-01-06T00:59:10.809Z,6.23
2023-01-06T01:01:39.172Z,6.26
2023-01-06T01:04:07.879Z,6.26
2023-01-06T01:06:37.717Z,6.29
2023-01-06T01:09:06.731Z,6.30
2023-01-06T01:11:54.065Z,6.33
2023-01-06T01:14:22.032Z,6.32
2023-01-06T01:16:51.100Z,6.32
2023-01-06T01:19:19.426Z,6.33
2023-01-06T01:21:47.606Z,6.32
2023-01-06T01:24:15.837Z,6.30
2023-01-06T01:26:44.102Z,6.35
2023-01-06T01:29:16.404Z,6.34
2023-01-06T01:31:45.031Z,6.29
2023-01-06T01:34:14.971Z,6.16
2023-01-06T01:36:43.716Z,6.00
2023-01-06T01:39:12.336Z,5.94
2023-01-06T01:41:40.700Z,5.87
2023-01-06T01:44:27.187Z,5.78
2023-01-06T01:46:55.590Z,5.78
2023-01-06T01:49:25.034Z,5.70
2023-01-06T01:51:55.034Z,5.65
2023-01-06T01:54:25.898Z,5.63
2023-01-06T01:56:56.972Z,5.66
2023-01-06T01:59:27.489Z,5.61
2023-01-06T02:01:55.896Z,5.60
2023-01-06T02:04:25.592Z,5.62
2023-01-06T02:06:53.929Z,5.61
2023-01-06T02:09:28.575Z,5.59
2023-01-06T02:11:57.724Z,5.57
2023-01-06T02:14:27.090Z,5.56
2023-01-06T02:17:01.172Z,5.57
2023-01-06T02:19:35.228Z,5.54
2023-01-06T02:22:09.053Z,5.55
2023-01-06T02:24:55.743Z,5.54
2023-01-06T02:27:23.492Z,5.55
2023-01-06T02:30:09.785Z,5.55
2023-01-06T02:32:53.083Z,5.56
2023-01-06T02:35:21.486Z,5.55
2023-01-06T02:38:00.167Z,5.49
2023-01-06T02:40:28.662Z,5.54
2023-01-06T02:43:08.150Z,5.54
2023-01-06T02:45:50.144Z,5.51
2023-01-06T02:48:25.713Z,5.50
2023-01-06T02:51:12.040Z,5.51
2023-01-06T02:53:43.824Z,5.56
2023-01-06T02:56:12.999Z,5.52
2023-01-06T02:58:46.951Z,5.56
2023-01-06T03:01:24.494Z,5.54
2023-01-06T03:03:53.476Z,5.61
2023-01-06T03:06:28.428Z,5.58
2023-01-06T03:08:56.861Z,5.66
2023-01-06T03:11:27.068Z,5.66
2023-01-06T03:14:03.198Z,5.76
2023-01-06T03:16:32.334Z,5.74
2023-01-06T03:19:00.411Z,5.80
2023-01-06T03:21:32.804Z,5.75
2023-01-06T03:24:00.702Z,5.83
2023-01-06T03:26:28.894Z,5.86
2023-01-06T03:28:57.303Z,5.85
2023-01-06T03:31:25.236Z,5.85
2023-01-06T03:34:06.214Z,5.80
2023-01-06T03:36:37.189Z,5.86
2023-01-06T03:39:12.212Z,5.91
2023-01-06T03:42:02.454Z,5.84
2023-01-06T03:44:39.774Z,5.77
2023-01-06T03:47:15.203Z,5.82
2023-01-06T03:49:51.518Z,5.83
2023-01-06T03:52:23.911Z,5.86
2023-01-06T03:54:57.820Z,5.86
2023-01-06T03:57:29.224Z,5.89
2023-01-06T03:59:59.191Z,5.81
2023-01-06T04:02:27.408Z,5.80
2023-01-06T04:05:03.061Z,5.81
2023-01-06T04:07:31.731Z,5.84
2023-01-06T04:10:00.211Z,5.81
2023-01-06T04:12:40.263Z,5.83
2023-01-06T04:15:12.782Z,5.86
2023-01-06T04:17:41.863Z,5.87
2023-01-06T04:20:12.692Z,5.83
2023-01-06T04:22:41.354Z,5.83
2023-01-06T04:25:10.056Z,5.82
2023-01-06T04:27:40.820Z,5.83
2023-01-06T04:30:09.001Z,5.87
2023-01-06T04:32:37.043Z,5.81
2023-01-06T04:35:07.533Z,5.85
2023-01-06T04:37:36.200Z,5.83
2023-01-06T04:40:04.422Z,5.82
2023-01-06T04:42:52.208Z,5.80
2023-01-06T04:45:20.354Z,5.80
2023-01-06T04:47:48.220Z,5.83
2023-01-06T04:50:16.254Z,5.81
2023-01-06T04:52:44.273Z,5.80
2023-01-06T04:55:12.581Z,5.77
2023-01-06T04:57:40.423Z,5.78
2023-01-06T05:00:08.592Z,5.76
2023-01-06T05:02:36.414Z,5.70
2023-01-06T05:05:04.766Z,5.62
2023-01-06T05:07:33.307Z,5.56
2023-01-06T05:10:01.270Z,5.43
2023-01-06T05:12:29.197Z,5.41
2023-01-06T05:14:56.917Z,5.41
2023-01-06T05:17:24.992Z,5.37
2023-01-06T05:19:53.237Z,5.30
2023-01-06T05:22:21.193Z,5.32
2023-01-06T05:24:49.067Z,5.18
2023-01-06T05:27:16.885Z,5.19
2023-01-06T05:29:44.994Z,5.14
2023-01-06T05:32:12.849Z,5.12
2023-01-06T05:34:40.687Z,5.09
2023-01-06T05:37:08.605Z,5.07
2023-01-06T05:39:36.680Z,5.07
2023-01-06T05:42:04.663Z,5.05
2023-01-06T05:44:32.709Z,4.99
2023-01-06T05:47:00.766Z,5.03
2023-01-06T05:49:30.102Z,4.97
2023-01-06T05:51:57.953Z,4.96
2023-01-06T05:54:25.868Z,4.94
2023-01-06T05:56:53.738Z,4.90
2023-01-06T05:59:21.588Z,4.93
2023-01-06T06:01:50.098Z,4.90
2023-01-06T06:04:18.100Z,4.90
2023-01-06T06:06:46.381Z,4.83
2023-01-06T06:09:14.244Z,4.88
2023-01-06T06:11:43.950Z,4.86
2023-01-06T06:14:11.884Z,4.91
2023-01-06T06:16:41.806Z,4.80
2023-01-06T06:19:12.232Z,4.87
2023-01-06T06:21:40.041Z,4.90
2023-01-06T06:24:08.116Z,4.82
2023-01-06T06:26:36.385Z,4.89
2023-01-06T06:29:05.375Z,4.90
2023-01-06T06:31:34.318Z,4.85
2023-01-06T06:34:02.823Z,4.85
2023-01-06T06:36:31.388Z,4.80
2023-01-06T06:39:00.523Z,4.72
2023-01-06T06:41:28.415Z,4.75
2023-01-06T06:44:02.647Z,4.77
2023-01-06T06:46:30.911Z,4.74
2023-01-06T06:48:58.738Z,4.75
2023-01-06T06:51:26.924Z,4.73
2023-01-06T06:53:54.901Z,4.76
2023-01-06T06:56:22.974Z,4.77
2023-01-06T06:58:50.968Z,4.76
2023-01-06T07:01:19.835Z,4.73
2023-01-06T07:03:48.209Z,4.70
2023-01-06T07:06:19.086Z,4.71
2023-01-06T07:08:47.429Z,4.73
2023-01-06T07:11:15.349Z,4.76
2023-01-06T07:13:43.563Z,4.77
2023-01-06T07:16:11.868Z,4.73
2023-01-06T07:18:40.028Z,4.77
2023-01-06T07:21:08.072Z,4.76
2023-01-06T07:23:36.430Z,4.75
2023-01-06T07:26:04.377Z,4.78
2023-01-06T07:28:32.601Z,4.78
2023-01-06T07:31:01.673Z,4.74
2023-01-06T07:33:29.750Z,4.81
2023-01-06T07:35:57.971Z,4.83
2023-01-06T07:38:27.206Z,4.81
2023-01-06T07:40:58.782Z,4.79
2023-01-06T07:43:28.832Z,4.70
2023-01-06T07:45:57.313Z,4.75
2023-01-06T07:48:25.356Z,4.76
2023-01-06T07:50:53.664Z,4.73
2023-01-06T07:53:22.157Z,4.78
2023-01-06T07:55:50.837Z,4.85
2023-01-06T07:58:18.849Z,4.85
2023-01-06T08:00:46.784Z,4.84
2023-01-06T08:03:15.111Z,4.82
2023-01-06T08:05:43.614Z,4.86
2023-01-06T08:08:12.388Z,4.91
2023-01-06T08:10:40.897Z,4.91
2023-01-06T08:13:09.310Z,4.95
2023-01-06T08:15:37.691Z,4.94
2023-01-06T08:18:05.983Z,4.97
2023-01-06T08:20:34.334Z,5.01
2023-01-06T08:23:02.504Z,5.03
2023-01-06T08:25:30.447Z,5.01
2023-01-06T08:28:00.268Z,5.02
2023-01-06T08:30:28.411Z,5.00
2023-01-06T08:32:59.994Z,5.01
2023-01-06T08:35:28.183Z,4.98
2023-01-06T08:37:56.122Z,4.95
2023-01-06T08:40:24.183Z,5.04
2023-01-06T08:42:52.473Z,5.00
2023-01-06T08:45:20.348Z,5.01
2023-01-06T08:47:48.259Z,5.00
2023-01-06T08:50:16.209Z,5.00
2023-01-06T08:52:44.405Z,4.92
2023-01-06T08:55:12.354Z,4.98
2023-01-06T08:57:40.170Z,4.98
2023-01-06T09:00:09.742Z,4.97
2023-01-06T09:02:38.143Z,4.97
2023-01-06T09:05:06.236Z,4.98
2023-01-06T09:07:35.332Z,4.94
2023-01-06T09:10:04.721Z,4.93
2023-01-06T09:12:32.601Z,4.99
2023-01-06T09:15:00.891Z,5.02
2023-01-06T09:17:29.719Z,5.07
2023-01-06T09:19:57.548Z,5.07
2023-01-06T09:22:25.420Z,5.10
2023-01-06T09:24:53.599Z,5.12
2023-01-06T09:27:22.895Z,5.13
2023-01-06T09:29:51.372Z,5.14
2023-01-06T09:32:19.274Z,5.16
2023-01-06T09:34:47.136Z,5.18
2023-01-06T09:37:15.396Z,5.20
2023-01-06T09:39:43.801Z,5.14
2023-01-06T09:42:20.731Z,5.04
2023-01-06T09:44:51.337Z,5.08
2023-01-06T09:47:23.154Z,5.10
2023-01-06T09:49:57.677Z,5.10
2023-01-06T09:52:42.289Z,5.10
2023-01-06T09:55:32.381Z,5.08
2023-01-06T09:58:03.898Z,5.08
2023-01-06T10:00:43.841Z,5.03
2023-01-06T10:03:17.744Z,5.01
2023-01-06T10:05:55.519Z,5.04
2023-01-06T10:08:36.316Z,4.98
2023-01-06T10:11:04.183Z,5.05
2023-01-06T10:13:51.950Z,5.03
2023-01-06T10:16:22.953Z,5.08
2023-01-06T10:19:17.988Z,5.13
2023-01-06T10:22:06.057Z,5.13
2023-01-06T10:24:41.737Z,5.23
2023-01-06T10:27:22.225Z,5.23
2023-01-06T10:30:43.779Z,5.19
2023-01-06T10:33:36.451Z,5.14
2023-01-06T10:36:11.111Z,5.19
2023-01-06T10:38:41.009Z,5.15
2023-01-06T10:41:19.752Z,5.15
2023-01-06T10:43:47.773Z,5.15
2023-01-06T10:46:16.283Z,5.20
2023-01-06T10:48:46.647Z,5.26
2023-01-06T10:51:32.771Z,5.29
2023-01-06T10:54:19.837Z,5.32
2023-01-06T10:56:53.813Z,5.34
2023-01-06T10:59:21.860Z,5.31
2023-01-06T11:01:53.990Z,5.29
2023-01-06T11:04:22.039Z,5.33
2023-01-06T11:06:54.344Z,5.37
2023-01-06T11:09:28.353Z,5.42
2023-01-06T11:11:58.120Z,5.33
2023-01-06T11:14:29.640Z,5.37
2023-01-06T11:17:00.479Z,5.36
2023-01-06T11:19:36.122Z,5.35
2023-01-06T11:22:05.097Z,5.30
2023-01-06T11:24:33.143Z,5.31
2023-01-06T11:27:14.170Z,5.21
2023-01-06T11:29:42.965Z,5.30
2023-01-06T11:32:20.586Z,5.35
2023-01-06T11:34:58.311Z,5.23
2023-01-06T11:37:34.718Z,5.21
2023-01-06T11:40:16.143Z,5.22
2023-01-06T11:42:50.010Z,5.19
2023-01-06T11:45:33.352Z,5.17
2023-01-06T11:48:02.572Z,5.16
2023-01-06T11:50:30.839Z,5.18
2023-01-06T11:53:03.513Z,5.23
2023-01-06T11:55:32.169Z,5.25
2023-01-06T11:58:00.150Z,5.20
2023-01-06T12:00:33.329Z,5.27
2023-01-06T12:03:17.124Z,5.32
2023-01-06T12:05:51.970Z,5.38
2023-01-06T12:08:21.522Z,5.48
2023-01-06T12:10:59.088Z,5.51
2023-01-06T12:13:27.723Z,5.57
2023-01-06T12:16:01.697Z,5.54
2023-01-06T12:18:31.832Z,5.54
2023-01-06T12:21:03.933Z,5.55
2023-01-06T12:23:38.063Z,5.54
2023-01-06T12:26:11.806Z,5.58
2023-01-06T12:28:45.566Z,5.61
2023-01-06T12:31:24.340Z,5.57
2023-01-06T12:33:58.841Z,5.48
2023-01-06T12:36:31.219Z,5.53
2023-01-06T12:39:03.179Z,5.65
2023-01-06T12:41:45.704Z,5.73
2023-01-06T12:44:20.882Z,5.80
2023-01-06T12:47:10.843Z,5.82
2023-01-06T12:49:39.190Z,5.88
2023-01-06T12:52:13.186Z,5.89
2023-01-06T12:54:43.358Z,5.90
2023-01-06T12:57:23.261Z,5.88
2023-01-06T13:00:13.601Z,5.97
2023-01-06T13:03:01.560Z,5.97
2023-01-06T13:05:38.709Z,6.03
2023-01-06T13:08:18.091Z,6.08
2023-01-06T13:10:49.328Z,6.00
2023-01-06T13:13:18.226Z,6.05
2023-01-06T13:15:46.798Z,6.10
2023-01-06T13:18:28.929Z,6.11
2023-01-06T13:21:04.412Z,6.14
2023-01-06T13:23:51.245Z,6.16
2023-01-06T13:26:34.919Z,6.20
2023-01-06T13:29:22.247Z,6.21
2023-01-06T13:31:50.329Z,6.25
2023-01-06T13:34:18.422Z,6.30
2023-01-06T13:36:49.049Z,6.30
2023-01-06T13:39:27.544Z,6.28
2023-01-06T13:41:59.196Z,6.28
2023-01-06T13:44:29.713Z,6.31
2023-01-06T13:47:02.598Z,6.29
2023-01-06T13:49:32.458Z,6.25
2023-01-06T13:52:00.470Z,6.24
2023-01-06T13:54:40.621Z,6.22
2023-01-06T13:57:20.695Z,6.12
2023-01-06T13:59:53.104Z,6.05
2023-01-06T14:02:42.903Z,5.97
2023-01-06T14:05:23.396Z,5.91
2023-01-06T14:07:59.800Z,5.91
2023-01-06T14:10:42.791Z,5.86
2023-01-06T14:13:21.933Z,5.86
2023-01-06T14:16:01.584Z,5.82
2023-01-06T14:18:55.981Z,5.78
2023-01-06T14:21:33.697Z,5.74
2023-01-06T14:24:10.266Z,5.71
2023-01-06T14:26:50.574Z,5.63
2023-01-06T14:29:37.012Z,5.57
2023-01-06T14:32:05.524Z,5.46
2023-01-06T14:34:35.744Z,5.38
2023-01-06T14:37:04.118Z,5.25
2023-01-06T14:39:34.977Z,5.17
2023-01-06T14:42:06.584Z,5.07
2023-01-06T14:44:48.900Z,5.00
2023-01-06T14:47:21.096Z,4.89
2023-01-06T14:49:58.422Z,4.82
2023-01-06T14:52:31.618Z,4.67
2023-01-06T14:55:01.010Z,4.63
2023-01-06T14:57:29.107Z,4.55
2023-01-06T15:00:07.739Z,4.49
2023-01-06T15:02:35.832Z,4.43
2023-01-06T15:05:05.248Z,4.36
2023-01-06T15:07:34.775Z,4.31
2023-01-06T15:10:21.892Z,4.27
2023-01-06T15:12:56.678Z,4.22
2023-01-06T15:15:32.259Z,4.17
2023-01-06T15:18:02.690Z,4.12
2023-01-06T15:20:38.803Z,4.09
2023-01-06T15:23:06.797Z,4.04
2023-01-06T15:25:37.404Z,3.98
2023-01-06T15:28:05.234Z,3.92
2023-01-06T15:30:36.668Z,3.87
2023-01-06T15:33:05.243Z,3.81
2023-01-06T15:35:33.489Z,3.76
2023-01-06T15:38:24.176Z,3.70
2023-01-06T15:40:52.916Z,3.63
2023-01-06T15:43:23.279Z,3.62
2023-01-06T15:45:57.156Z,3.58
2023-01-06T15:48:27.996Z,3.53
2023-01-06T15:50:55.928Z,3.50
2023-01-06T15:53:25.592Z,3.47
2023-01-06T15:55:56.319Z,3.43
2023-01-06T15:58:33.953Z,3.38
2023-01-06T16:01:11.733Z,3.31
2023-01-06T16:03:39.685Z,3.24
2023-01-06T16:06:16.689Z,3.21
2023-01-06T16:08:44.651Z,3.15
2023-01-06T16:11:37.901Z,3.11
2023-01-06T16:14:07.158Z,3.07
2023-01-06T16:16:36.037Z,3.04
2023-01-06T16:19:08.358Z,3.02
2023-01-06T16:21:37.583Z,2.99
2023-01-06T16:24:06.480Z,2.96
2023-01-06T16:26:41.942Z,2.95
2023-01-06T16:29:29.004Z,2.91
2023-01-06T16:31:59.738Z,2.89
2023-01-06T16:34:31.242Z,2.82
2023-01-06T16:37:00.302Z,2.76
2023-01-06T16:39:28.323Z,2.66
2023-01-06T16:41:59.189Z,2.62
2023-01-06T16:44:29.958Z,2.58
2023-01-06T16:46:58.671Z,2.51
2023-01-06T16:49:26.869Z,2.43
2023-01-06T16:51:54.868Z,2.33
2023-01-06T16:54:23.568Z,2.27
2023-01-06T16:56:53.509Z,2.29
2023-01-06T16:59:22.359Z,2.26
2023-01-06T17:01:50.624Z,2.20
2023-01-06T17:04:19.135Z,2.13
2023-01-06T17:06:47.038Z,2.04
2023-01-06T17:09:23.007Z,1.99
2023-01-06T17:11:53.450Z,1.95
2023-01-06T17:14:23.839Z,1.89
2023-01-06T17:16:53.461Z,1.84
2023-01-06T17:19:23.344Z,1.81
2023-01-06T17:21:54.972Z,1.78
2023-01-06T17:24:28.805Z,1.78
2023-01-06T17:27:22.776Z,1.78
2023-01-06T17:29:51.843Z,1.73
2023-01-06T17:32:21.350Z,1.68
2023-01-06T17:34:49.735Z,1.67
2023-01-06T17:37:22.340Z,1.65
2023-01-06T17:39:51.060Z,1.60
2023-01-06T17:42:19.111Z,1.58
2023-01-06T17:44:48.831Z,1.54
2023-01-06T17:47:17.327Z,1.49
2023-01-06T17:49:51.353Z,1.47
2023-01-06T17:52:21.758Z,1.43
2023-01-06T17:55:19.106Z,1.39
2023-01-06T17:57:47.638Z,1.34
2023-01-06T18:00:23.798Z,1.31
2023-01-06T18:02:56.736Z,1.26
2023-01-06T18:05:24.634Z,1.22
2023-01-06T18:08:07.643Z,1.14
2023-01-06T18:10:39.336Z,1.08
2023-01-06T18:13:16.631Z,1.01
2023-01-06T18:15:46.790Z,0.95
2023-01-06T18:18:27.115Z,0.87
2023-01-06T18:21:13.611Z,0.81
2023-01-06T18:23:46.094Z,0.76
2023-01-06T18:26:26.560Z,0.72
2023-01-06T18:28:57.686Z,0.69
2023-01-06T18:31:29.822Z,0.66
2023-01-06T18:34:00.916Z,0.64
2023-01-06T18:36:29.974Z,0.63
2023-01-06T18:39:00.561Z,0.59
2023-01-06T18:41:29.050Z,0.56
2023-01-06T18:43:57.924Z,0.53
2023-01-06T18:46:27.031Z,0.51
2023-01-06T18:48:55.143Z,0.48
2023-01-06T18:51:24.003Z,0.47
2023-01-06T18:53:52.781Z,0.42
2023-01-06T18:56:22.814Z,0.38
2023-01-06T18:58:55.003Z,0.38
2023-01-06T19:01:24.594Z,0.39
2023-01-06T19:03:55.810Z,0.36
2023-01-06T19:06:26.866Z,0.33
2023-01-06T19:08:55.073Z,0.28
2023-01-06T19:11:24.459Z,0.25
2023-01-06T19:13:54.604Z,0.20
2023-01-06T19:16:42.531Z,0.18
2023-01-06T19:19:11.068Z,0.19
2023-01-06T19:21:39.042Z,0.19
2023-01-06T19:24:26.798Z,0.16
2023-01-06T19:26:59.484Z,0.13
2023-01-06T19:29:29.381Z,0.11
2023-01-06T19:32:13.079Z,0.07
2023-01-06T19:34:41.628Z,0.04
2023-01-06T19:37:16.034Z,0.02
2023-01-06T19:39:50.848Z,0.02
2023-01-06T19:42:19.602Z,-0.01
2023-01-06T19:44:49.938Z,-0.03
2023-01-06T19:47:24.235Z,-0.04
2023-01-06T19:49:58.473Z,-0.07
2023-01-06T19:52:27.034Z,-0.06
2023-01-06T19:54:55.948Z,-0.06
2023-01-06T19:57:28.626Z,-0.07
2023-01-06T19:59:57.820Z,-0.10
2023-01-06T20:02:41.904Z,-0.15
2023-01-06T20:05:10.922Z,-0.19
2023-01-06T20:07:38.817Z,-0.24
2023-01-06T20:10:07.056Z,-0.27
2023-01-06T20:12:34.929Z,-0.29
2023-01-06T20:15:05.727Z,-0.33
2023-01-06T20:17:34.557Z,-0.37
2023-01-06T20:20:03.143Z,-0.39
2023-01-06T20:22:31.473Z,-0.42
2023-01-06T20:25:02.543Z,-0.44
2023-01-06T20:27:30.501Z,-0.47
2023-01-06T20:29:58.418Z,-0.51
2023-01-06T20:32:26.227Z,-0.54
2023-01-06T20:34:54.090Z,-0.55
2023-01-06T20:37:22.222Z,-0.57
2023-01-06T20:39:50.593Z,-0.59
2023-01-06T20:42:20.130Z,-0.62
2023-01-06T20:44:48.123Z,-0.65
2023-01-06T20:47:16.290Z,-0.68
2023-01-06T20:49:44.883Z,-0.71
2023-01-06T20:52:12.881Z,-0.72
2023-01-06T20:54:40.795Z,-0.75
2023-01-06T20:57:10.238Z,-0.79
2023-01-06T20:59:38.171Z,-0.83
2023-01-06T21:02:06.841Z,-0.87
2023-01-06T21:04:35.062Z,-0.90
2023-01-06T21:07:03.088Z,-0.93
2023-01-06T21:09:31.259Z,-0.94
2023-01-06T21:11:59.582Z,-0.96
2023-01-06T21:14:27.410Z,-0.97
2023-01-06T21:16:55.502Z,-1.01
2023-01-06T21:19:25.650Z,-1.04
2023-01-06T21:21:53.999Z,-1.07
2023-01-06T21:24:21.872Z,-1.10
2023-01-06T21:26:52.381Z,-1.12
2023-01-06T21:29:20.496Z,-1.14
2023-01-06T21:31:48.526Z,-1.15
2023-01-06T21:34:18.024Z,-1.15
2023-01-06T21:36:45.885Z,-1.17
2023-01-06T21:39:15.678Z,-1.18
2023-01-06T21:42:01.917Z,-1.20
2023-01-06T21:44:31.845Z,-1.22
2023-01-06T21:46:59.886Z,-1.24
2023-01-06T21:49:27.769Z,-1.24
2023-01-06T21:51:57.336Z,-1.26
2023-01-06T21:54:25.346Z,-1.29
2023-01-06T21:56:54.033Z,-1.32
2023-01-06T21:59:22.004Z,-1.32
2023-01-06T22:01:50.428Z,-1.34
2023-01-06T22:04:19.022Z,-1.36
2023-01-06T22:06:47.212Z,-1.38
2023-01-06T22:09:16.927Z,-1.39
2023-01-06T22:11:45.427Z,-1.42
2023-01-06T22:14:14.061Z,-1.42
2023-01-06T22:16:45.303Z,-1.46
2023-01-06T22:19:14.823Z,-1.49
2023-01-06T22:21:44.208Z,-1.50
2023-01-06T22:24:15.938Z,-1.53
2023-01-06T22:26:43.991Z,-1.56
2023-01-06T22:29:13.009Z,-1.62
2023-01-06T22:31:40.848Z,-1.63
2023-01-06T22:34:08.944Z,-1.62
2023-01-06T22:36:36.826Z,-1.64
2023-01-06T22:39:05.066Z,-1.63
2023-01-06T22:41:33.571Z,-1.63
2023-01-06T22:44:01.480Z,-1.62
2023-01-06T22:46:29.661Z,-1.61
2023-01-06T22:48:58.160Z,-1.61
2023-01-06T22:51:27.473Z,-1.60
2023-01-06T22:53:56.231Z,-1.58
2023-01-06T22:56:25.131Z,-1.54
2023-01-06T22:58:53.048Z,-1.53
2023-01-06T23:01:21.194Z,-1.48
2023-01-06T23:03:49.468Z,-1.47
2023-01-06T23:06:17.770Z,-1.44
2023-01-06T23:08:58.938Z,-1.42
2023-01-06T23:11:28.962Z,-1.40
2023-01-06T23:13:57.651Z,-1.38
2023-01-06T23:16:27.068Z,-1.35
2023-01-06T23:18:55.131Z,-1.31
2023-01-06T23:21:24.305Z,-1.28
2023-01-06T23:23:52.804Z,-1.27
2023-01-06T23:26:22.710Z,-1.25
2023-01-06T23:28:51.496Z,-1.21
2023-01-06T23:31:21.068Z,-1.22
2023-01-06T23:33:50.582Z,-1.19
2023-01-06T23:36:19.551Z,-1.17
2023-01-06T23:38:48.625Z,-1.16
2023-01-06T23:41:19.970Z,-1.16
2023-01-06T23:43:47.909Z,-1.16
2023-01-06T23:46:17.555Z,-1.18
2023-01-06T23:48:45.503Z,-1.20
2023-01-06T23:51:14.071Z,-1.18
2023-01-06T23:53:43.616Z,-1.13
2023-01-06T23:56:13.932Z,-1.07
2023-01-06T23:58:42.633Z,-1.00
